Terminal Aerodrome Forecast
Issued by NWS

Home | Current Version | Previous Version | Text Only | Print | Product List | Glossary On
Versions: 1 2 3 4 5 6 7 8 9 10 11 12 13 14 15 16 17 18 19 20 21 22 23 24 25
402
FTUS42 KJAX 260315 AAA
TAFCRG
TAF AMD
KCRG 260315Z 2603/2624 33007KT P6SM VCSH SCT035 BKN070 BKN200
     FM260500 00000KT P6SM FEW070 SCT120 BKN200
     FM261300 24003KT P6SM SCT030 SCT200
     FM261900 13007KT P6SM VCTS SCT040CB BKN200=

USA.gov is the U.S. government's official web portal to all federal, state and local government web resources and services.